Time;durP1;ratioP1;P1;durP2;ratioP2;P2;SDS_P1;SDS_P2;PMS_P1;PMS_P2;Temp;Humidity;BMP_temperature;BMP_pressure;BME280_temperature;BME280_humidity;BME280_pressure;Samples;Min_cycle;Max_cycle;Signal;HPM_P1;HPM_P2
2023/12/29 00:01:11;;;;;;;5.75;3.83;;;;;;;7.34;72.95;98842.09;4989806;28;20195;-56
2023/12/29 00:03:37;;;;;;;4.85;3.40;;;;;;;7.28;72.48;98829.53;4989865;28;20180;-56
2023/12/29 00:06:03;;;;;;;7.00;4.30;;;;;;;7.21;72.97;98810.16;4989842;28;20317;-56
2023/12/29 00:08:28;;;;;;;4.78;3.92;;;;;;;7.35;72.82;98828.31;4989759;28;20190;-56
2023/12/29 00:10:54;;;;;;;4.20;3.30;;;;;;;7.14;72.58;98795.09;4989764;28;20188;-56
2023/12/29 00:13:22;;;;;;;3.78;3.35;;;;;;;6.84;72.36;98748.56;5020320;28;20582;-56
2023/12/29 00:15:51;;;;;;;3.40;3.10;;;;;;;7.03;72.56;98767.31;5029081;28;20726;-56
2023/12/29 00:18:16;;;;;;;4.38;3.15;;;;;;;6.88;72.34;98744.91;5030728;28;20187;-56
2023/12/29 00:20:42;;;;;;;4.05;3.00;;;;;;;7.37;72.04;98829.09;5039777;28;20170;-56
2023/12/29 00:23:07;;;;;;;3.47;2.38;;;;;;;6.80;70.80;98741.88;5051308;28;20587;-56
2023/12/29 00:25:36;;;;;;;4.43;2.40;;;;;;;6.80;70.79;98752.16;5051250;28;20246;-56
2023/12/29 00:28:02;;;;;;;1.75;1.63;;;;;;;6.54;70.96;98724.28;5051189;28;20268;-56
2023/12/29 00:30:29;;;;;;;2.00;1.90;;;;;;;6.59;71.09;98730.03;5028821;28;20317;-56
2023/12/29 00:32:55;;;;;;;2.33;2.13;;;;;;;7.16;71.26;98825.00;5028814;28;20194;-56
2023/12/29 00:35:20;;;;;;;1.75;1.65;;;;;;;6.94;69.31;98764.38;4989389;28;20300;-56
2023/12/29 00:37:46;;;;;;;3.40;2.28;;;;;;;6.87;70.10;98757.84;4989521;28;20187;-56
2023/12/29 00:40:11;;;;;;;1.85;1.75;;;;;;;6.69;69.98;98728.69;4989504;28;20275;-56
2023/12/29 00:42:37;;;;;;;2.90;2.15;;;;;;;6.92;70.04;98774.72;4989425;28;20553;-56
2023/12/29 00:45:03;;;;;;;4.13;2.83;;;;;;;6.73;70.18;98729.38;4969834;28;20235;-56
2023/12/29 00:47:28;;;;;;;3.10;2.80;;;;;;;7.05;70.52;98788.66;4969957;28;20193;-56
2023/12/29 00:49:53;;;;;;;5.55;2.75;;;;;;;6.73;70.73;98739.66;4969976;28;20223;-56
2023/12/29 00:52:19;;;;;;;3.50;3.00;;;;;;;6.77;71.14;98751.47;4970036;28;20188;-56
2023/12/29 00:54:44;;;;;;;3.30;2.63;;;;;;;7.02;71.85;98788.81;4969805;28;20192;-57
2023/12/29 00:57:10;;;;;;;4.18;3.30;;;;;;;7.02;72.22;98793.97;4969930;28;20191;-56
2023/12/29 00:59:39;;;;;;;4.50;3.40;;;;;;;6.67;72.43;98721.97;4969847;28;20236;-56
2023/12/29 01:02:05;;;;;;;4.72;3.42;;;;;;;6.93;72.25;98768.66;4970831;28;20196;-56
2023/12/29 01:04:30;;;;;;;6.85;3.45;;;;;;;6.61;72.69;98710.25;4973483;28;20251;-56
2023/12/29 01:06:55;;;;;;;4.20;3.38;;;;;;;6.73;72.83;98730.22;5007051;28;20226;-56
2023/12/29 01:09:21;;;;;;;3.20;2.72;;;;;;;7.17;70.51;98793.19;5052290;28;20177;-56
2023/12/29 01:11:46;;;;;;;1.90;1.80;;;;;;;6.40;68.28;98643.63;5052198;28;20324;-56
2023/12/29 01:14:12;;;;;;;2.80;1.95;;;;;;;6.90;68.27;98743.09;5052164;28;20682;-56
2023/12/29 01:16:37;;;;;;;2.10;1.90;;;;;;;7.03;67.52;98785.34;5053610;28;20186;-56
2023/12/29 01:19:03;;;;;;;3.50;2.95;;;;;;;6.39;69.83;98694.19;5054765;28;20177;-56
2023/12/29 01:21:28;;;;;;;3.35;1.88;;;;;;;6.76;69.37;98739.53;5054485;28;20182;-56
2023/12/29 01:23:53;;;;;;;3.25;2.22;;;;;;;6.67;70.65;98727.94;5054392;28;20675;-56
2023/12/29 01:26:19;;;;;;;1.67;1.58;;;;;;;6.79;68.15;98724.78;5054509;28;20239;-56
2023/12/29 01:28:44;;;;;;;2.40;1.42;;;;;;;7.04;66.74;98748.41;5054342;28;20177;-56
2023/12/29 01:31:11;;;;;;;2.20;1.73;;;;;;;6.95;66.93;98719.72;5054306;28;20233;-56
2023/12/29 01:33:36;;;;;;;2.00;1.50;;;;;;;7.05;66.22;98716.63;5054198;28;20178;-56
2023/12/29 01:36:02;;;;;;;3.30;2.95;;;;;;;7.12;68.56;98733.41;5054125;28;20239;-56
2023/12/29 01:38:27;;;;;;;3.30;2.70;;;;;;;6.82;69.47;98708.38;5053827;28;20248;-56
2023/12/29 01:40:53;;;;;;;1.73;1.55;;;;;;;6.75;65.73;98684.69;5054135;28;20177;-56
2023/12/29 01:43:18;;;;;;;2.63;1.52;;;;;;;6.63;65.18;98657.00;5054371;28;20174;-56
2023/12/29 01:45:43;;;;;;;1.85;1.73;;;;;;;6.79;65.29;98673.34;5053950;28;20205;-56
2023/12/29 01:48:09;;;;;;;1.85;1.58;;;;;;;6.57;65.76;98636.75;5053988;28;20227;-56
2023/12/29 01:50:35;;;;;;;2.08;1.58;;;;;;;6.57;65.41;98634.19;5053888;28;20178;-56
2023/12/29 01:53:03;;;;;;;1.58;1.48;;;;;;;7.12;65.57;98743.69;5053885;28;20170;-56
2023/12/29 01:55:29;;;;;;;2.42;1.48;;;;;;;6.84;65.84;98689.41;5054134;28;20170;-56
2023/12/29 01:57:55;;;;;;;3.03;1.90;;;;;;;6.85;66.93;98701.34;5053780;28;20178;-56
2023/12/29 02:00:25;;;;;;;2.70;2.50;;;;;;;6.94;68.43;98728.34;5053729;28;20223;-56
2023/12/29 02:02:50;;;;;;;4.75;2.95;;;;;;;7.12;69.46;98756.56;5053991;28;20660;-56
2023/12/29 02:05:17;;;;;;;4.82;3.72;;;;;;;7.20;70.93;98761.34;5053234;28;20202;-56
2023/12/29 02:07:43;;;;;;;5.90;3.90;;;;;;;6.72;71.40;98695.16;5053588;28;20177;-56
2023/12/29 02:10:10;;;;;;;8.80;5.38;;;;;;;6.51;72.31;98654.19;5053610;28;20173;-56
2023/12/29 02:12:38;;;;;;;7.72;4.70;;;;;;;6.48;72.94;98680.06;5053260;28;20214;-56
2023/12/29 02:15:05;;;;;;;5.88;4.53;;;;;;;6.50;73.65;98676.50;5053407;28;20209;-56
2023/12/29 02:17:56;;;;;;;7.63;4.45;;;;;;;6.42;73.83;98663.19;5053485;28;20170;-56
2023/12/29 02:20:22;;;;;;;7.65;4.53;;;;;;;6.71;74.10;98721.75;5053450;28;20177;-57
2023/12/29 02:22:47;;;;;;;4.32;3.92;;;;;;;6.94;74.27;98761.78;5053322;28;20203;-56
2023/12/29 02:25:14;;;;;;;6.47;3.75;;;;;;;6.56;74.46;98701.06;5052911;28;20261;-56
2023/12/29 02:27:42;;;;;;;5.88;3.63;;;;;;;6.81;74.45;98753.81;5053215;28;20170;-56
2023/12/29 02:30:12;;;;;;;4.07;3.38;;;;;;;6.51;74.68;98705.59;5053201;28;20236;-56
2023/12/29 02:32:41;;;;;;;4.35;3.40;;;;;;;6.56;74.99;98737.06;5050530;28;20194;-56
2023/12/29 02:35:10;;;;;;;4.53;3.00;;;;;;;6.69;75.08;98751.84;5050600;28;20684;-56
2023/12/29 02:37:37;;;;;;;3.30;3.00;;;;;;;6.30;74.93;98692.03;5050443;28;20228;-56
2023/12/29 02:40:03;;;;;;;5.30;3.05;;;;;;;6.57;75.41;98744.72;5050561;28;20185;-56
2023/12/29 02:42:28;;;;;;;6.50;3.22;;;;;;;6.30;74.94;98697.16;5050475;28;20182;-56
2023/12/29 02:44:54;;;;;;;3.25;2.92;;;;;;;6.57;75.20;98739.56;5050654;28;20632;-56
2023/12/29 02:47:21;;;;;;;3.33;3.03;;;;;;;5.91;75.54;98639.97;5070145;28;20188;-56
2023/12/29 02:49:46;;;;;;;3.28;2.80;;;;;;;6.55;75.82;98736.25;5070201;28;20197;-56
2023/12/29 02:52:12;;;;;;;3.10;2.75;;;;;;;5.97;75.60;98649.94;5070227;28;20275;-56
2023/12/29 02:54:37;;;;;;;6.68;2.97;;;;;;;6.54;76.00;98744.03;5070461;28;20181;-56
2023/12/29 02:57:03;;;;;;;4.38;2.53;;;;;;;6.03;75.75;98657.38;5070103;28;20177;-56
2023/12/29 02:59:28;;;;;;;3.47;2.65;;;;;;;5.87;75.76;98632.44;5070045;28;20717;-56
2023/12/29 03:01:53;;;;;;;2.92;2.42;;;;;;;6.53;76.01;98743.19;5070285;28;20181;-56
2023/12/29 03:04:19;;;;;;;3.22;2.92;;;;;;;6.54;75.95;98733.75;5069914;28;20189;-56
2023/12/29 03:06:45;;;;;;;3.72;3.03;;;;;;;5.94;76.08;98644.13;5069798;28;20303;-56
2023/12/29 03:09:10;;;;;;;4.80;2.50;;;;;;;6.40;76.44;98708.69;5069899;28;20176;-56
2023/12/29 03:11:35;;;;;;;2.50;2.30;;;;;;;6.26;76.18;98674.25;5069800;28;20268;-56
2023/12/29 03:14:01;;;;;;;2.55;2.35;;;;;;;6.48;76.47;98709.16;5069843;28;20184;-56
2023/12/29 03:16:26;;;;;;;2.50;2.30;;;;;;;6.23;75.87;98641.84;5069750;28;20577;-56
2023/12/29 03:18:51;;;;;;;4.28;2.08;;;;;;;6.20;72.31;98654.00;5056625;28;20194;-56
2023/12/29 03:21:17;;;;;;;1.60;1.50;;;;;;;6.07;68.61;98609.25;5051930;28;20585;-56
2023/12/29 03:23:42;;;;;;;1.30;1.20;;;;;;;6.45;66.87;98652.75;5052170;28;20176;-56
2023/12/29 03:26:08;;;;;;;1.30;1.30;;;;;;;6.45;66.56;98628.78;5051428;28;20279;-56
2023/12/29 03:28:33;;;;;;;1.58;1.35;;;;;;;6.57;66.50;98651.31;5052032;28;20551;-56
2023/12/29 03:30:58;;;;;;;1.60;1.50;;;;;;;6.85;65.66;98680.78;5052007;28;20186;-56
2023/12/29 03:33:24;;;;;;;1.90;1.80;;;;;;;6.57;65.56;98638.47;5051962;28;20204;-56
2023/12/29 03:35:49;;;;;;;1.30;1.20;;;;;;;6.82;65.58;98683.47;5029361;28;20193;-56
2023/12/29 03:38:15;;;;;;;2.75;1.80;;;;;;;6.81;65.58;98681.81;5029829;28;20276;-56
2023/12/29 03:40:40;;;;;;;2.13;1.88;;;;;;;6.77;64.88;98664.06;5029454;28;20190;-56
2023/12/29 03:43:05;;;;;;;1.63;1.50;;;;;;;6.83;64.09;98661.19;5029532;28;20185;-56
2023/12/29 03:45:31;;;;;;;1.10;1.00;;;;;;;6.90;63.58;98668.53;5029338;28;20214;-56
2023/12/29 03:47:56;;;;;;;0.93;0.93;;;;;;;6.57;63.20;98603.34;5029374;28;20174;-56
2023/12/29 03:50:22;;;;;;;2.72;1.13;;;;;;;7.07;63.43;98678.81;5029376;28;20218;-56
2023/12/29 03:52:47;;;;;;;1.27;1.17;;;;;;;6.89;63.33;98659.16;5029390;28;20580;-56
2023/12/29 03:55:14;;;;;;;1.23;1.23;;;;;;;6.72;63.33;98624.88;5029196;28;20362;-56
2023/12/29 03:57:39;;;;;;;1.13;1.10;;;;;;;7.03;63.31;98677.28;5029217;28;20175;-56
2023/12/29 04:00:06;;;;;;;1.23;1.05;;;;;;;6.91;62.54;98654.75;5029304;28;20183;-56
2023/12/29 04:02:31;;;;;;;1.23;1.15;;;;;;;7.25;61.85;98693.31;5029086;28;20233;-56
2023/12/29 04:04:57;;;;;;;2.85;2.25;;;;;;;7.06;63.69;98648.81;5029216;28;20210;-56
2023/12/29 04:07:22;;;;;;;7.53;3.70;;;;;;;7.02;64.65;98644.75;5045450;28;20276;-56
2023/12/29 04:09:48;;;;;;;6.10;4.85;;;;;;;7.35;66.49;98689.34;5051357;28;20182;-56
2023/12/29 04:12:13;;;;;;;8.75;5.82;;;;;;;7.17;68.67;98672.25;5051409;28;20177;-56
2023/12/29 04:14:38;;;;;;;8.65;6.25;;;;;;;7.22;69.20;98665.16;5051356;28;20178;-56
2023/12/29 04:17:13;;;;;;;11.27;5.78;;;;;;;6.77;70.20;98603.16;5051144;28;20257;-56
2023/12/29 04:19:38;;;;;;;7.40;3.97;;;;;;;6.81;68.56;98599.53;5051292;28;20184;-56
2023/12/29 04:22:04;;;;;;;1.10;1.10;;;;;;;7.03;64.02;98656.72;5051345;28;20170;-56
2023/12/29 04:24:30;;;;;;;1.98;1.77;;;;;;;7.14;63.86;98662.16;5051073;28;20233;-56
2023/12/29 04:26:55;;;;;;;6.35;2.83;;;;;;;7.04;66.33;98658.38;5051355;28;20180;-56
2023/12/29 04:29:21;;;;;;;9.07;4.43;;;;;;;7.01;67.54;98658.53;5051055;28;20178;-56
2023/12/29 04:31:46;;;;;;;7.50;4.07;;;;;;;6.94;69.15;98646.88;5051195;28;20556;-56
2023/12/29 04:34:11;;;;;;;7.78;4.50;;;;;;;6.39;69.72;98560.56;5048592;28;20267;-56
2023/12/29 04:36:37;;;;;;;7.85;4.88;;;;;;;6.23;70.40;98546.78;5050760;28;20192;-56
2023/12/29 04:39:02;;;;;;;4.72;3.75;;;;;;;6.93;70.45;98659.81;5052790;28;20550;-56
2023/12/29 04:41:27;;;;;;;4.72;2.95;;;;;;;6.57;68.17;98594.78;5052810;28;20178;-56
2023/12/29 04:43:53;;;;;;;2.63;1.90;;;;;;;6.99;67.29;98649.22;5052722;28;20186;-56
2023/12/29 04:46:18;;;;;;;1.90;1.65;;;;;;;7.00;66.72;98656.84;5052562;28;20212;-56
2023/12/29 04:48:43;;;;;;;1.80;1.70;;;;;;;7.09;66.13;98650.41;5052908;28;20190;-56
2023/12/29 04:51:09;;;;;;;2.45;2.25;;;;;;;6.89;66.09;98606.88;5052577;28;20671;-56
2023/12/29 04:53:34;;;;;;;19.35;9.45;;;;;;;6.73;65.95;98583.66;5052574;28;20196;-56
2023/12/29 04:56:00;;;;;;;33.53;14.90;;;;;;;6.93;68.34;98637.50;5052543;28;20182;-56
2023/12/29 04:58:25;;;;;;;28.52;14.48;;;;;;;7.00;69.37;98651.69;5052491;28;20182;-56
2023/12/29 05:00:50;;;;;;;23.75;11.65;;;;;;;6.52;70.81;98591.63;5052435;28;20340;-56
2023/12/29 05:03:16;;;;;;;39.00;16.00;;;;;;;6.41;72.62;98612.69;5052413;28;20178;-56
2023/12/29 05:05:41;;;;;;;31.80;14.95;;;;;;;6.19;72.85;98570.13;5053702;28;20263;-56
2023/12/29 05:08:06;;;;;;;30.45;14.35;;;;;;;6.58;73.06;98638.41;5054727;28;20174;-56
2023/12/29 05:10:34;;;;;;;30.92;14.23;;;;;;;5.97;74.28;98578.03;5054676;28;20239;-56
2023/12/29 05:13:00;;;;;;;51.03;24.13;;;;;;;6.41;74.15;98646.09;5054630;28;20173;-56
2023/12/29 05:15:25;;;;;;;39.75;18.70;;;;;;;5.75;74.41;98563.69;5054263;28;20524;-56
2023/12/29 05:17:50;;;;;;;31.70;15.05;;;;;;;5.73;74.79;98561.19;5054529;28;20185;-56
2023/12/29 05:20:16;;;;;;;29.35;12.68;;;;;;;6.14;74.38;98621.75;5054456;28;20212;-56
2023/12/29 05:22:41;;;;;;;17.08;9.50;;;;;;;6.36;74.68;98668.59;5054403;28;20201;-56
2023/12/29 05:25:07;;;;;;;14.48;6.97;;;;;;;6.38;74.99;98661.69;5053985;28;20231;-56
2023/12/29 05:27:32;;;;;;;8.60;5.63;;;;;;;6.04;75.19;98623.06;5054335;28;20590;-56
2023/12/29 05:29:58;;;;;;;11.70;4.93;;;;;;;6.30;74.91;98660.38;5031749;28;20264;-56
2023/12/29 05:32:23;;;;;;;7.28;4.28;;;;;;;6.22;75.19;98660.75;5031899;28;20194;-56
2023/12/29 05:34:48;;;;;;;17.75;8.82;;;;;;;6.23;74.99;98666.72;5031854;28;20190;-56
2023/12/29 05:37:14;;;;;;;24.13;11.68;;;;;;;6.08;74.44;98627.19;5031865;28;20186;-56
2023/12/29 05:39:42;;;;;;;15.43;7.35;;;;;;;6.11;74.39;98627.00;5031687;28;20182;-56
2023/12/29 05:42:07;;;;;;;14.48;7.30;;;;;;;5.74;74.07;98562.84;5030693;28;20178;-56
2023/12/29 05:44:36;;;;;;;8.30;4.88;;;;;;;6.35;73.97;98661.81;5031626;28;20190;-56
2023/12/29 05:47:01;;;;;;;8.93;5.13;;;;;;;5.81;74.09;98565.97;5031759;28;20741;-56
2023/12/29 05:49:27;;;;;;;46.85;27.90;;;;;;;6.31;73.75;98660.31;5030948;28;20301;-56
2023/12/29 05:51:52;;;;;;;42.08;25.40;;;;;;;5.92;74.16;98618.50;5031631;28;20371;-56
2023/12/29 05:54:17;;;;;;;22.48;14.93;;;;;;;5.57;74.42;98569.66;5031552;28;20183;-56
2023/12/29 05:56:43;;;;;;;12.60;7.25;;;;;;;6.18;74.97;98672.06;5031424;28;20282;-56
2023/12/29 05:59:08;;;;;;;8.65;4.88;;;;;;;6.04;74.79;98635.91;5031710;28;20208;-56
2023/12/29 06:01:34;;;;;;;7.95;5.45;;;;;;;5.85;74.73;98596.59;5048085;28;20203;-56
2023/12/29 06:03:59;;;;;;;8.15;4.80;;;;;;;6.01;74.87;98643.75;5053728;28;20181;-56
2023/12/29 06:06:25;;;;;;;9.93;5.80;;;;;;;5.85;75.39;98624.00;5053475;28;20201;-56
2023/12/29 06:08:50;;;;;;;8.25;5.25;;;;;;;6.22;75.67;98681.28;5053278;28;20534;-56
2023/12/29 06:11:16;;;;;;;13.57;9.73;;;;;;;5.73;75.72;98625.38;5053408;28;20177;-56
2023/12/29 06:13:42;;;;;;;21.80;14.27;;;;;;;5.90;76.22;98663.13;5053484;28;20173;-56
2023/12/29 06:16:07;;;;;;;16.92;8.98;;;;;;;5.63;76.40;98618.16;5053506;28;20182;-56
2023/12/29 06:18:33;;;;;;;16.95;9.88;;;;;;;5.58;76.59;98615.78;5053086;28;20181;-56
2023/12/29 06:20:59;;;;;;;12.18;7.40;;;;;;;5.62;76.62;98611.34;5053278;28;20301;-56
2023/12/29 06:23:25;;;;;;;12.60;7.95;;;;;;;5.57;77.12;98618.41;5053308;28;20189;-56
2023/12/29 06:25:51;;;;;;;13.50;8.00;;;;;;;5.67;77.11;98625.66;5053312;28;20318;-56
2023/12/29 06:28:16;;;;;;;11.85;8.52;;;;;;;5.49;77.64;98589.72;5052913;28;20210;-56
2023/12/29 06:30:42;;;;;;;11.98;7.35;;;;;;;5.89;78.19;98680.25;5052880;28;20174;-56
2023/12/29 06:33:07;;;;;;;14.52;8.40;;;;;;;5.87;78.27;98658.97;5053165;28;20170;-56
2023/12/29 06:35:33;;;;;;;13.68;7.97;;;;;;;5.55;79.08;98626.19;5053129;28;20603;-56
2023/12/29 06:37:59;;;;;;;12.63;8.00;;;;;;;5.75;78.76;98653.53;5053058;28;20178;-56
2023/12/29 06:40:24;;;;;;;21.38;13.45;;;;;;;5.72;79.51;98662.19;5052697;28;20189;-56
2023/12/29 06:42:49;;;;;;;28.88;14.50;;;;;;;5.60;79.60;98628.56;5052744;28;20178;-56
2023/12/29 06:45:15;;;;;;;25.73;13.05;;;;;;;5.68;79.35;98641.88;5052874;28;20654;-56
2023/12/29 06:47:40;;;;;;;23.33;11.57;;;;;;;5.70;79.44;98640.91;5052812;28;20181;-56
2023/12/29 06:50:07;;;;;;;19.10;11.90;;;;;;;6.09;79.51;98672.50;5052828;28;20464;-56
2023/12/29 06:52:34;;;;;;;13.63;8.38;;;;;;;6.21;79.19;98671.94;5052782;28;20174;-56
2023/12/29 06:55:02;;;;;;;17.65;7.47;;;;;;;6.07;78.94;98627.25;5052749;28;20185;-56
2023/12/29 06:57:28;;;;;;;6.53;4.00;;;;;;;6.19;75.87;98626.66;5052345;28;20172;-56
2023/12/29 06:59:53;;;;;;;5.60;4.35;;;;;;;6.18;75.69;98617.28;5051658;28;20185;-56
2023/12/29 07:02:19;;;;;;;7.32;4.18;;;;;;;6.70;72.56;98662.69;5052298;28;20181;-56
2023/12/29 07:04:44;;;;;;;5.95;3.20;;;;;;;6.55;72.20;98612.88;5052493;28;20182;-56
2023/12/29 07:07:10;;;;;;;1.40;1.30;;;;;;;6.43;65.27;98577.50;5052475;28;20269;-56
2023/12/29 07:09:38;;;;;;;3.70;3.13;;;;;;;7.21;67.28;98665.22;5052358;28;20177;-56
2023/12/29 07:12:04;;;;;;;2.42;2.10;;;;;;;7.33;68.30;98664.59;5052114;28;20185;-56
2023/12/29 07:14:29;;;;;;;19.08;9.55;;;;;;;7.23;67.73;98624.81;5052593;28;20640;-56
2023/12/29 07:16:55;;;;;;;23.83;10.63;;;;;;;7.21;68.62;98611.19;5051969;28;20675;-56
2023/12/29 07:19:20;;;;;;;13.70;7.63;;;;;;;7.05;69.88;98595.69;5051898;28;20193;-56
2023/12/29 07:21:53;;;;;;;11.93;7.70;;;;;;;7.35;70.63;98629.31;5068566;27;20555;-55
2023/12/29 07:24:18;;;;;;;17.95;9.05;;;;;;;7.39;71.10;98638.56;5068766;28;20177;-55
2023/12/29 07:26:43;;;;;;;12.80;8.05;;;;;;;7.69;71.15;98698.75;5068676;28;20179;-56
2023/12/29 07:29:09;;;;;;;12.73;8.10;;;;;;;7.32;71.30;98622.59;5066359;28;21269;-58
2023/12/29 07:31:38;;;;;;;25.33;11.77;;;;;;;7.77;71.63;98681.97;5059490;28;20193;-55
2023/12/29 07:34:04;;;;;;;18.90;10.65;;;;;;;7.88;71.52;98679.66;5066973;28;20559;-55
2023/12/29 07:36:29;;;;;;;16.65;9.55;;;;;;;7.82;71.53;98667.09;5067121;28;20185;-55
2023/12/29 07:38:54;;;;;;;14.60;8.98;;;;;;;7.98;71.23;98665.34;5068472;28;20173;-55
2023/12/29 07:41:20;;;;;;;6.68;5.53;;;;;;;8.08;67.27;98669.09;5068105;28;20263;-55
2023/12/29 07:43:45;;;;;;;11.82;7.20;;;;;;;7.66;67.02;98596.72;5061920;28;20182;-55
2023/12/29 07:46:10;;;;;;;12.32;7.75;;;;;;;8.13;67.64;98669.69;5057132;28;20190;-55
2023/12/29 07:48:36;;;;;;;9.90;7.10;;;;;;;8.19;67.64;98677.09;5048225;28;20280;-55
2023/12/29 07:51:05;;;;;;;11.00;8.18;;;;;;;8.03;67.60;98642.75;5048195;28;20235;-55
2023/12/29 07:53:30;;;;;;;10.30;6.93;;;;;;;8.42;67.88;98697.31;5048107;28;20185;-56
2023/12/29 07:55:56;;;;;;;8.68;6.97;;;;;;;8.04;68.07;98626.38;5048009;28;20177;-56
2023/12/29 07:58:21;;;;;;;11.63;6.55;;;;;;;8.39;68.35;98668.28;5046893;28;20312;-56
2023/12/29 08:00:46;;;;;;;10.38;6.90;;;;;;;8.40;68.24;98657.88;5046902;28;20715;-56
2023/12/29 08:03:12;;;;;;;11.20;6.80;;;;;;;8.11;67.91;98583.88;5047358;28;20251;-56
2023/12/29 08:05:37;;;;;;;15.55;7.85;;;;;;;8.47;67.61;98642.91;5048080;28;20628;-56
2023/12/29 08:08:03;;;;;;;9.82;7.28;;;;;;;8.80;67.17;98667.59;5048054;28;20182;-56
2023/12/29 08:10:28;;;;;;;16.63;9.27;;;;;;;8.97;67.16;98675.22;5047678;28;20182;-57
2023/12/29 08:12:54;;;;;;;18.50;10.02;;;;;;;9.00;66.46;98675.03;5045327;28;20727;-57
2023/12/29 08:15:19;;;;;;;22.55;10.25;;;;;;;9.16;65.88;98680.13;5045431;28;20214;-56
2023/12/29 08:17:45;;;;;;;17.65;11.35;;;;;;;9.13;65.86;98675.97;5045483;28;20328;-56
2023/12/29 08:20:11;;;;;;;23.52;13.75;;;;;;;9.25;66.03;98664.94;5045119;28;20233;-56
2023/12/29 08:22:36;;;;;;;25.52;13.43;;;;;;;9.41;66.22;98683.78;5045350;28;20559;-57
2023/12/29 08:25:03;;;;;;;28.23;14.95;;;;;;;9.38;66.72;98676.19;5045302;28;20276;-56
2023/12/29 08:27:28;;;;;;;23.83;14.65;;;;;;;9.07;66.71;98619.56;5045137;28;20681;-56
2023/12/29 08:29:54;;;;;;;21.85;13.35;;;;;;;9.41;66.23;98668.28;5045267;28;20263;-55
2023/12/29 08:32:20;;;;;;;18.85;12.13;;;;;;;9.62;65.82;98692.81;5037053;28;20186;-56
2023/12/29 08:34:46;;;;;;;24.85;12.65;;;;;;;9.31;66.10;98643.91;5012173;28;20560;-55
2023/12/29 08:37:11;;;;;;;19.80;10.80;;;;;;;9.47;66.15;98652.41;5011884;28;20183;-55
2023/12/29 08:39:37;;;;;;;16.60;9.40;;;;;;;9.30;66.23;98619.03;5011766;28;20653;-55
2023/12/29 08:42:03;;;;;;;15.77;9.88;;;;;;;9.58;66.19;98650.81;5011957;28;20254;-55
2023/12/29 08:44:28;;;;;;;19.02;10.85;;;;;;;9.66;66.41;98655.53;5026465;28;20595;-55
2023/12/29 08:46:53;;;;;;;19.25;10.27;;;;;;;9.87;66.08;98673.13;5031567;28;20182;-55
2023/12/29 08:49:19;;;;;;;17.23;9.40;;;;;;;9.95;65.92;98670.09;5031568;28;20285;-55
2023/12/29 08:51:45;;;;;;;19.77;10.00;;;;;;;10.20;65.54;98688.34;5031280;28;20190;-55
2023/12/29 08:54:10;;;;;;;16.75;9.68;;;;;;;10.18;65.19;98672.94;5031421;28;20293;-55
2023/12/29 08:56:36;;;;;;;13.35;8.52;;;;;;;10.17;65.17;98657.53;5051103;28;20596;-55
2023/12/29 08:59:01;;;;;;;14.50;9.32;;;;;;;10.22;64.42;98650.31;5051101;28;20224;-55
2023/12/29 09:01:27;;;;;;;14.15;8.90;;;;;;;10.02;64.10;98604.16;5051135;28;20306;-55
2023/12/29 09:03:52;;;;;;;23.05;8.48;;;;;;;10.15;63.69;98626.56;5051257;28;20177;-55
2023/12/29 09:06:18;;;;;;;19.67;10.05;;;;;;;10.63;63.74;98685.53;5065661;28;20264;-55
2023/12/29 09:08:44;;;;;;;15.98;9.25;;;;;;;10.52;63.35;98656.91;5071085;28;20192;-55
2023/12/29 09:11:09;;;;;;;16.83;9.30;;;;;;;10.71;63.43;98677.28;5071254;28;20200;-55
2023/12/29 09:13:34;;;;;;;18.75;9.13;;;;;;;10.59;63.29;98639.25;5071040;28;20177;-55
2023/12/29 09:16:00;;;;;;;25.83;10.35;;;;;;;10.36;63.09;98580.41;5070914;28;20177;-55
2023/12/29 09:18:25;;;;;;;19.80;11.02;;;;;;;10.50;62.82;98588.13;5070887;28;20212;-55
2023/12/29 09:20:51;;;;;;;19.13;10.73;;;;;;;11.08;62.62;98669.59;5070672;28;20726;-55
2023/12/29 09:23:17;;;;;;;15.93;10.25;;;;;;;10.63;62.48;98573.44;5070847;28;20330;-56
2023/12/29 09:25:42;;;;;;;23.17;10.82;;;;;;;11.04;62.58;98631.06;5070751;28;20181;-55
2023/12/29 09:28:07;;;;;;;17.65;10.52;;;;;;;11.01;62.49;98607.94;5070713;28;20199;-55
2023/12/29 09:30:33;;;;;;;20.00;10.35;;;;;;;11.04;62.00;98602.56;5071026;28;20728;-55
2023/12/29 09:32:58;;;;;;;16.50;11.60;;;;;;;11.40;61.97;98649.28;5068033;28;20643;-55
2023/12/29 09:35:24;;;;;;;18.20;10.80;;;;;;;11.13;61.78;98597.59;5032921;28;20257;-56
2023/12/29 09:37:50;;;;;;;21.20;11.25;;;;;;;11.46;61.19;98644.53;5033096;28;20202;-56
2023/12/29 09:40:15;;;;;;;21.17;10.90;;;;;;;11.21;60.91;98604.84;5032756;28;20216;-56
2023/12/29 09:42:44;;;;;;;23.15;12.30;;;;;;;11.62;60.61;98660.69;5032715;28;20178;-56
2023/12/29 09:45:13;;;;;;;22.00;12.77;;;;;;;11.45;60.62;98616.13;5032213;28;20174;-56
2023/12/29 09:47:41;;;;;;;18.92;11.85;;;;;;;11.73;59.93;98652.22;5032876;28;20178;-56
2023/12/29 09:50:12;;;;;;;21.42;12.68;;;;;;;11.72;60.03;98641.00;5032848;28;20681;-56
2023/12/29 09:52:38;;;;;;;21.23;12.32;;;;;;;11.54;60.24;98597.34;5032549;28;20681;-56
2023/12/29 09:55:09;;;;;;;27.45;14.52;;;;;;;11.64;60.23;98585.44;5032678;28;20179;-56
2023/12/29 09:57:35;;;;;;;22.80;14.18;;;;;;;11.95;60.88;98626.41;5032607;28;20186;-55
2023/12/29 10:00:01;;;;;;;29.20;14.95;;;;;;;11.55;60.85;98547.19;5032598;28;20289;-56
2023/12/29 10:02:28;;;;;;;22.98;13.75;;;;;;;11.53;60.97;98536.09;5032652;28;20653;-55
2023/12/29 10:04:53;;;;;;;27.48;14.55;;;;;;;11.87;61.61;98577.72;5032571;28;20173;-56
2023/12/29 10:07:26;;;;;;;25.95;13.32;;;;;;;11.73;62.19;98549.34;5032551;28;20178;-56
2023/12/29 10:09:57;;;;;;;25.98;13.93;;;;;;;11.72;62.07;98531.31;5032182;28;20640;-57
2023/12/29 10:12:24;;;;;;;27.58;15.27;;;;;;;11.87;62.19;98543.16;5032433;28;20186;-55
2023/12/29 10:14:57;;;;;;;24.25;13.65;;;;;;;12.08;61.86;98560.59;5029826;28;20194;-55
2023/12/29 10:17:43;;;;;;;29.45;13.65;;;;;;;12.34;62.21;98603.66;5030018;28;20190;-55
2023/12/29 10:20:38;;;;;;;25.38;14.32;;;;;;;12.37;62.42;98592.25;5029398;28;20317;-56
2023/12/29 10:23:20;;;;;;;25.20;13.70;;;;;;;12.13;62.22;98536.94;5030009;28;20244;-56
2023/12/29 10:25:47;;;;;;;20.35;12.68;;;;;;;12.47;61.91;98593.19;5029826;28;20171;-56
2023/12/29 10:28:13;;;;;;;22.08;12.60;;;;;;;12.45;61.77;98584.72;5029856;28;20174;-55
2023/12/29 10:30:40;;;;;;;20.23;11.23;;;;;;;12.54;61.53;98586.63;5029606;28;20194;-55
2023/12/29 10:33:05;;;;;;;16.95;11.63;;;;;;;12.19;61.79;98515.75;5029677;28;20197;-55
2023/12/29 10:35:31;;;;;;;22.63;11.48;;;;;;;12.59;61.85;98571.53;5029559;28;20186;-55
2023/12/29 10:38:13;;;;;;;17.13;10.23;;;;;;;12.60;62.07;98570.63;5029556;28;20190;-55
2023/12/29 10:40:39;;;;;;;20.08;10.25;;;;;;;12.40;62.25;98524.53;5029356;28;20358;-55
2023/12/29 10:43:07;;;;;;;13.85;9.02;;;;;;;12.61;61.88;98549.72;5029461;28;20179;-55
2023/12/29 10:45:32;;;;;;;13.82;8.45;;;;;;;12.24;61.32;98479.88;5029405;28;20252;-55
2023/12/29 10:48:00;;;;;;;16.80;8.25;;;;;;;12.45;61.48;98494.72;5009544;28;20183;-55
2023/12/29 10:50:27;;;;;;;11.07;8.32;;;;;;;12.33;60.15;98469.69;5009565;28;20246;-55
2023/12/29 10:53:10;;;;;;;17.17;8.70;;;;;;;12.57;60.34;98501.59;5009596;28;20195;-56
2023/12/29 10:55:36;;;;;;;16.23;9.38;;;;;;;12.95;59.96;98554.06;5009476;28;20185;-55
2023/12/29 10:58:01;;;;;;;11.13;8.52;;;;;;;12.71;59.64;98500.56;5009505;28;20183;-55
2023/12/29 11:00:30;;;;;;;20.25;12.45;;;;;;;13.05;58.84;98549.84;5009471;28;20269;-55
2023/12/29 11:02:56;;;;;;;25.08;12.63;;;;;;;12.89;58.88;98512.94;5009477;28;20518;-56
2023/12/29 11:05:25;;;;;;;16.92;10.85;;;;;;;13.21;58.43;98559.88;5009496;28;20175;-56
2023/12/29 11:07:53;;;;;;;17.55;9.95;;;;;;;13.30;56.97;98543.59;5009401;28;20238;-55
2023/12/29 11:10:20;;;;;;;17.95;9.43;;;;;;;13.19;56.99;98526.22;5009562;28;20183;-55
2023/12/29 11:12:47;;;;;;;15.45;8.98;;;;;;;12.85;57.26;98461.38;5009247;28;20222;-55
2023/12/29 11:15:14;;;;;;;13.38;8.23;;;;;;;13.23;56.88;98521.59;5009073;28;20233;-55
2023/12/29 11:17:49;;;;;;;17.52;8.32;;;;;;;13.14;57.48;98497.19;5009073;28;20187;-58
2023/12/29 11:20:16;;;;;;;13.82;7.57;;;;;;;13.15;57.19;98496.22;5068554;28;20269;-56
2023/12/29 11:22:42;;;;;;;10.98;6.30;;;;;;;13.03;55.56;98467.78;5068852;28;20185;-56
2023/12/29 11:25:08;;;;;;;9.50;6.38;;;;;;;13.38;55.41;98520.41;5068867;28;20668;-56
2023/12/29 11:27:34;;;;;;;10.77;5.43;;;;;;;13.34;55.51;98522.44;5068988;28;20220;-56
2023/12/29 11:30:01;;;;;;;15.00;7.25;;;;;;;13.33;54.79;98523.38;5068900;28;20667;-56